Accueil
METAR-TAF:

METAR-TAF

Aéroports :

Boscombe Down, Angleterre

latitude: 51-10N, longitude: 001-45W, altitude: 124 m

Observation

Le bulletin a été fait il y a 57 minutes, à 16:50 UTC
Vent 11 kt de nord-ouest
Température 12°C
Humidité 47%
Pression 1029 hPa
Visibilité 10 km ou plus

METAR: EGDM 241650Z AUTO 31011KT 9999 NCD 12/01 Q1029

Heure: 17:47 (17:47 UTC)

Prévision

Le bulletin a été fait il y a 27 heures et 56 minutes, à 13:51 UTC
Prévision valable du 23 à 15 UTC au 23 à 18 UTC
Vent 10 kt de est/nord-est
Visibilité 10 km ou plus
Nuages épars à une hauteur de 3500 ft

TAF: EGDM 231351Z 2315/2318 06010KT 9999 SCT035

Observations et prévisions météorologiques de plus de 4000 aéroports (messages METAR et TAF).

Les stations disponibles sont représentées par des disques jaunes et rouges sur la carte.

Passer la souris dessus pour voir le nom de la station.

Cliquer dessus pour voir les observations et prévisions météorologiques.

Pour changer de carte: cliquez sur les boutons verts avec une croix noire pour zoomer, sur le bouton vert avec un tiret pour effectuer un zoom arrière, ou sur les flèches vertes pour les cartes adjacentes.


METAR-TAF: